createdAt,value
2018-09-10T00:00:47.416Z,93.41
2018-09-10T00:01:47.399Z,92.74
2018-09-10T00:02:47.351Z,92.74
2018-09-10T00:03:47.269Z,92.55
2018-09-10T00:04:47.216Z,93.50
2018-09-10T00:05:47.169Z,92.74
2018-09-10T00:06:47.120Z,92.83
2018-09-10T00:07:47.119Z,92.74
2018-09-10T00:08:47.019Z,93.21
2018-09-10T00:09:46.971Z,92.74
2018-09-10T00:10:46.923Z,92.83
2018-09-10T00:11:46.876Z,93.21
2018-09-10T00:12:46.853Z,93.60
2018-09-10T00:13:46.774Z,92.93
2018-09-10T00:14:46.725Z,92.45
2018-09-10T00:15:46.716Z,92.93
2018-09-10T00:16:46.626Z,93.21
2018-09-10T00:17:46.577Z,92.83
2018-09-10T00:18:46.525Z,92.74
2018-09-10T00:19:46.476Z,92.74
2018-09-10T00:20:46.470Z,92.93
2018-09-10T00:21:46.377Z,92.45
2018-09-10T00:22:46.329Z,92.45
2018-09-10T00:23:46.279Z,92.83
2018-09-10T00:24:46.231Z,93.21
2018-09-10T00:25:46.218Z,92.93
2018-09-10T00:26:46.130Z,92.93
2018-09-10T00:27:46.081Z,92.83
2018-09-10T00:28:46.031Z,92.83
2018-09-10T00:29:45.981Z,92.74
2018-09-10T00:30:45.972Z,92.64
2018-09-10T00:31:45.884Z,92.64
2018-09-10T00:32:45.833Z,92.74
2018-09-10T00:33:45.783Z,92.93
2018-09-10T00:34:45.736Z,92.83
2018-09-10T00:35:45.717Z,92.36
2018-09-10T00:36:45.636Z,92.93
2018-09-10T00:37:45.584Z,92.83
2018-09-10T00:38:45.536Z,92.64
2018-09-10T00:39:45.488Z,92.16
2018-09-10T00:40:45.468Z,92.74
2018-09-10T00:41:45.389Z,92.55
2018-09-10T00:42:45.338Z,92.74
2018-09-10T00:43:45.289Z,92.36
2018-09-10T00:44:45.239Z,92.45
2018-09-10T00:45:45.220Z,92.36
2018-09-10T00:46:45.188Z,92.45
2018-09-10T00:47:45.091Z,92.97
2018-09-10T00:48:45.044Z,92.50
2018-09-10T00:49:44.989Z,92.41
2018-09-10T00:50:44.938Z,92.60
2018-09-10T00:51:44.933Z,92.12
2018-09-10T00:52:44.841Z,91.45
2018-09-10T00:53:44.792Z,92.41
2018-09-10T00:54:44.745Z,92.02
2018-09-10T00:55:44.692Z,92.41
2018-09-10T00:56:44.673Z,92.02
2018-09-10T00:57:44.592Z,92.41
2018-09-10T00:58:44.545Z,92.79
2018-09-10T00:59:44.496Z,92.41
2018-09-10T01:00:44.444Z,91.26
2018-09-10T01:01:44.428Z,92.12
2018-09-10T01:02:44.389Z,92.12
2018-09-10T01:03:44.296Z,92.12
2018-09-10T01:04:44.245Z,92.12
2018-09-10T01:05:44.196Z,92.41
2018-09-10T01:06:44.145Z,92.69
2018-09-10T01:07:44.137Z,92.60
2018-09-10T01:08:44.052Z,92.60
2018-09-10T01:09:44.000Z,92.74
2018-09-10T01:10:43.948Z,92.83
2018-09-10T01:11:43.899Z,92.55
2018-09-10T01:12:43.881Z,91.88
2018-09-10T01:13:43.830Z,93.12
2018-09-10T01:14:43.747Z,93.02
2018-09-10T01:15:43.699Z,92.55
2018-09-10T01:16:43.648Z,92.83
2018-09-10T01:17:43.600Z,92.45
2018-09-10T01:18:43.578Z,92.55
2018-09-10T01:19:43.502Z,91.78
2018-09-10T01:20:43.487Z,92.83
2018-09-10T01:21:43.400Z,92.41
2018-09-10T01:22:43.356Z,91.93
2018-09-10T01:23:43.301Z,92.12
2018-09-10T01:24:43.252Z,91.93
2018-09-10T01:25:43.235Z,92.41
2018-09-10T01:26:43.153Z,91.55
2018-09-10T01:27:43.101Z,91.93
2018-09-10T01:28:43.083Z,92.21
2018-09-10T01:29:43.003Z,92.12
2018-09-10T01:30:43.008Z,92.12
2018-09-10T01:31:42.909Z,92.41
2018-09-10T01:32:42.854Z,92.79
2018-09-10T01:33:42.804Z,92.41
2018-09-10T01:34:42.756Z,92.45
2018-09-10T01:35:42.755Z,92.97
2018-09-10T01:36:42.658Z,92.88
2018-09-10T01:37:42.605Z,93.02
2018-09-10T01:38:42.560Z,92.16
2018-09-10T01:39:42.506Z,92.36
2018-09-10T01:40:42.489Z,92.45
2018-09-10T01:41:42.407Z,92.45
2018-09-10T01:42:42.358Z,92.83
2018-09-10T01:43:42.306Z,92.74
2018-09-10T01:44:42.256Z,92.69
2018-09-10T01:45:42.237Z,92.45
2018-09-10T01:46:42.156Z,92.93
2018-09-10T01:47:42.110Z,92.41
2018-09-10T01:48:42.090Z,92.69
2018-09-10T01:49:42.009Z,92.83
2018-09-10T01:50:41.957Z,92.93
2018-09-10T01:51:41.945Z,92.45
2018-09-10T01:52:41.859Z,92.74
2018-09-10T01:53:41.846Z,92.26
2018-09-10T01:54:41.760Z,92.41
2018-09-10T01:55:41.708Z,92.88
2018-09-10T01:56:41.692Z,92.79
2018-09-10T01:57:41.611Z,92.83
2018-09-10T01:58:41.561Z,92.79
2018-09-10T01:59:41.513Z,92.50
2018-09-10T02:00:41.501Z,92.60
2018-09-10T02:01:41.409Z,92.60
2018-09-10T02:02:41.361Z,92.79
2018-09-10T02:03:41.310Z,92.60
2018-09-10T02:04:41.261Z,92.79
2018-09-10T02:05:41.243Z,92.50
2018-09-10T02:06:41.161Z,92.50
2018-09-10T02:07:41.111Z,92.69
2018-09-10T02:08:41.095Z,92.69
2018-09-10T02:09:41.014Z,92.79
2018-09-10T02:10:40.962Z,92.50
2018-09-10T02:11:40.956Z,92.79
2018-09-10T02:12:40.866Z,92.50
2018-09-10T02:13:40.811Z,92.88
2018-09-10T02:14:40.762Z,92.93
2018-09-10T02:15:40.714Z,92.79
2018-09-10T02:16:40.711Z,93.02
2018-09-10T02:17:40.612Z,92.88
2018-09-10T02:18:40.566Z,92.50
2018-09-10T02:19:40.518Z,92.79
2018-09-10T02:20:40.463Z,92.79
2018-09-10T02:21:40.445Z,92.69
2018-09-10T02:22:40.365Z,92.60
2018-09-10T02:23:40.386Z,93.07
2018-09-10T02:24:40.266Z,92.97
2018-09-10T02:25:40.215Z,92.88
2018-09-10T02:26:40.164Z,92.97
2018-09-10T02:27:40.200Z,92.97
2018-09-10T02:28:40.066Z,92.69
2018-09-10T02:29:40.016Z,92.41
2018-09-10T02:30:39.967Z,92.88
2018-09-10T02:31:39.917Z,93.36
2018-09-10T02:32:39.896Z,93.26
2018-09-10T02:33:39.847Z,92.88
2018-09-10T02:34:39.766Z,93.26
2018-09-10T02:35:39.716Z,92.97
2018-09-10T02:36:39.669Z,92.88
2018-09-10T02:37:39.647Z,92.69
2018-09-10T02:38:39.740Z,92.60
2018-09-10T02:39:39.516Z,92.97
2018-09-10T02:40:39.466Z,92.60
2018-09-10T02:41:39.416Z,92.69
2018-09-10T02:42:39.417Z,92.79
2018-09-10T02:43:39.319Z,93.26
2018-09-10T02:44:39.265Z,93.55
2018-09-10T02:45:39.223Z,92.79
2018-09-10T02:46:39.167Z,93.36
2018-09-10T02:47:39.155Z,93.17
2018-09-10T02:48:39.069Z,92.88
2018-09-10T02:49:39.017Z,93.74
2018-09-10T02:50:38.969Z,93.26
2018-09-10T02:51:38.922Z,93.36
2018-09-10T02:52:38.899Z,93.07
2018-09-10T02:53:38.819Z,93.36
2018-09-10T02:54:38.807Z,93.17
2018-09-10T02:55:38.718Z,93.26
2018-09-10T02:56:38.669Z,93.17
2018-09-10T02:57:38.618Z,92.88
2018-09-10T02:58:38.570Z,93.55
2018-09-10T02:59:38.547Z,93.88
2018-09-10T03:00:38.469Z,93.74
2018-09-10T03:01:38.451Z,93.41
2018-09-10T03:02:38.372Z,93.79
2018-09-10T03:03:38.323Z,93.88
2018-09-10T03:04:38.271Z,93.98
2018-09-10T03:05:38.217Z,93.70
2018-09-10T03:06:38.199Z,93.41
2018-09-10T03:07:38.119Z,93.60
2018-09-10T03:08:38.069Z,93.60
2018-09-10T03:09:38.019Z,92.93
2018-09-10T03:10:37.973Z,93.50
2018-09-10T03:11:37.955Z,93.79
2018-09-10T03:12:37.869Z,93.98
2018-09-10T03:13:37.821Z,93.88
2018-09-10T03:14:37.769Z,93.88
2018-09-10T03:15:37.722Z,93.79
2018-09-10T03:16:37.703Z,93.60
2018-09-10T03:17:37.621Z,93.79
2018-09-10T03:18:37.569Z,93.60
2018-09-10T03:19:37.520Z,93.41
2018-09-10T03:20:37.520Z,93.70
2018-09-10T03:21:37.421Z,93.74
2018-09-10T03:22:37.372Z,93.36
2018-09-10T03:23:37.320Z,93.17
2018-09-10T03:24:37.271Z,93.46
2018-09-10T03:25:37.270Z,93.74
2018-09-10T03:26:37.172Z,93.46
2018-09-10T03:27:37.122Z,93.55
2018-09-10T03:28:37.071Z,92.88
2018-09-10T03:29:37.024Z,93.74
2018-09-10T03:30:37.004Z,93.93
2018-09-10T03:31:36.968Z,93.84
2018-09-10T03:32:36.873Z,93.65
2018-09-10T03:33:36.869Z,93.93
2018-09-10T03:34:36.770Z,93.74
2018-09-10T03:35:36.724Z,93.74
2018-09-10T03:36:36.709Z,93.84
2018-09-10T03:37:36.626Z,93.88
2018-09-10T03:38:36.573Z,93.88
2018-09-10T03:39:36.523Z,93.84
2018-09-10T03:40:36.476Z,94.03
2018-09-10T03:41:36.455Z,93.79
2018-09-10T03:42:36.372Z,93.84
2018-09-10T03:43:36.325Z,93.65
2018-09-10T03:44:36.272Z,93.46
2018-09-10T03:45:36.223Z,93.46
2018-09-10T03:46:36.203Z,93.93
2018-09-10T03:47:36.154Z,92.97
2018-09-10T03:48:36.071Z,93.93
2018-09-10T03:49:36.022Z,94.12
2018-09-10T03:50:35.972Z,93.74
2018-09-10T03:51:35.922Z,93.93
2018-09-10T03:52:35.904Z,94.03
2018-09-10T03:53:35.820Z,93.74
2018-09-10T03:54:35.773Z,93.84
2018-09-10T03:55:35.726Z,93.65
2018-09-10T03:56:35.677Z,94.03
2018-09-10T03:57:35.655Z,93.74
2018-09-10T03:58:35.580Z,93.84
2018-09-10T03:59:35.523Z,93.84
2018-09-10T04:00:35.476Z,93.84
2018-09-10T04:01:35.424Z,93.74
2018-09-10T04:02:35.414Z,94.03
2018-09-10T04:03:35.324Z,93.84
2018-09-10T04:04:35.274Z,93.93
2018-09-10T04:05:35.229Z,93.46
2018-09-10T04:06:35.173Z,93.93
2018-09-10T04:07:35.155Z,93.46
2018-09-10T04:08:35.074Z,93.93
2018-09-10T04:09:35.024Z,93.84
2018-09-10T04:10:35.105Z,93.74
2018-09-10T04:11:34.925Z,93.93
2018-09-10T04:12:34.872Z,93.55
2018-09-10T04:13:34.825Z,93.55
2018-09-10T04:14:34.772Z,93.74
2018-09-10T04:15:34.755Z,94.31
2018-09-10T04:16:34.673Z,94.03
2018-09-10T04:17:34.623Z,93.84
2018-09-10T04:18:34.575Z,94.41
2018-09-10T04:19:34.528Z,93.74
2018-09-10T04:20:34.504Z,94.12
2018-09-10T04:21:34.426Z,93.65
2018-09-10T04:22:34.372Z,94.31
2018-09-10T04:23:34.325Z,94.41
2018-09-10T04:24:34.277Z,94.12
2018-09-10T04:25:34.265Z,94.12
2018-09-10T04:26:34.175Z,94.22
2018-09-10T04:27:34.125Z,94.22
2018-09-10T04:28:34.072Z,94.41
2018-09-10T04:29:34.023Z,94.12
2018-09-10T04:30:34.003Z,94.22
2018-09-10T04:31:33.925Z,94.31
2018-09-10T04:32:33.872Z,93.84
2018-09-10T04:33:33.822Z,93.93
2018-09-10T04:34:33.773Z,93.93
2018-09-10T04:35:33.757Z,94.41
2018-09-10T04:36:33.744Z,93.65
2018-09-10T04:37:33.626Z,93.84
2018-09-10T04:38:33.572Z,94.31
2018-09-10T04:39:33.521Z,93.74
2018-09-10T04:40:33.505Z,93.74
2018-09-10T04:41:33.424Z,94.12
2018-09-10T04:42:33.401Z,94.31
2018-09-10T04:43:33.326Z,94.22
2018-09-10T04:44:33.272Z,94.31
2018-09-10T04:45:33.246Z,94.12
2018-09-10T04:46:33.177Z,93.74
2018-09-10T04:47:33.152Z,94.12
2018-09-10T04:48:33.074Z,93.65
2018-09-10T04:49:33.067Z,93.84
2018-09-10T04:50:32.971Z,93.74
2018-09-10T04:51:32.926Z,94.27
2018-09-10T04:52:32.903Z,93.98
2018-09-10T04:53:32.833Z,94.17
2018-09-10T04:54:32.813Z,93.60
2018-09-10T04:55:32.722Z,94.07
2018-09-10T04:56:32.674Z,93.98
2018-09-10T04:57:32.623Z,93.88
2018-09-10T04:58:32.584Z,93.88
2018-09-10T04:59:32.554Z,93.98
2018-09-10T05:00:32.476Z,93.88
2018-09-10T05:01:32.434Z,94.27
2018-09-10T05:02:32.380Z,94.17
2018-09-10T05:03:32.321Z,93.79
2018-09-10T05:04:32.355Z,94.07
2018-09-10T05:05:32.220Z,93.60
2018-09-10T05:06:32.171Z,93.88
2018-09-10T05:07:32.122Z,93.60
2018-09-10T05:08:32.069Z,94.17
2018-09-10T05:09:32.050Z,94.27
2018-09-10T05:10:31.969Z,94.27
2018-09-10T05:11:31.920Z,94.07
2018-09-10T05:12:31.869Z,94.07
2018-09-10T05:13:31.819Z,94.12
2018-09-10T05:14:31.803Z,94.12
2018-09-10T05:15:31.720Z,94.03
2018-09-10T05:16:31.668Z,94.31
2018-09-10T05:17:31.618Z,94.60
2018-09-10T05:18:31.567Z,94.22
2018-09-10T05:19:31.577Z,94.89
2018-09-10T05:20:31.466Z,94.12
2018-09-10T05:21:31.417Z,93.74
2018-09-10T05:22:31.370Z,94.79
2018-09-10T05:23:31.317Z,94.03
2018-09-10T05:24:31.308Z,94.51
2018-09-10T05:25:31.220Z,94.22
2018-09-10T05:26:31.173Z,94.70
2018-09-10T05:27:31.118Z,94.12
2018-09-10T05:28:31.065Z,94.51
2018-09-10T05:29:31.049Z,94.12
2018-09-10T05:30:30.998Z,94.65
2018-09-10T05:31:30.917Z,94.07
2018-09-10T05:32:30.865Z,94.65
2018-09-10T05:33:30.818Z,94.74
2018-09-10T05:34:30.772Z,94.07
2018-09-10T05:35:30.747Z,94.84
2018-09-10T05:36:30.666Z,94.36
2018-09-10T05:37:30.618Z,94.36
2018-09-10T05:38:30.567Z,94.36
2018-09-10T05:39:30.518Z,94.07
2018-09-10T05:40:30.507Z,93.98
2018-09-10T05:41:30.425Z,94.65
2018-09-10T05:42:30.367Z,94.36
2018-09-10T05:43:30.317Z,94.36
2018-09-10T05:44:30.266Z,94.55
2018-09-10T05:45:30.257Z,94.46
2018-09-10T05:46:30.168Z,93.88
2018-09-10T05:47:30.214Z,94.07
2018-09-10T05:48:30.067Z,93.98
2018-09-10T05:49:30.018Z,94.17
2018-09-10T05:50:30.001Z,93.88
2018-09-10T05:51:29.918Z,94.07
2018-09-10T05:52:29.874Z,93.79
2018-09-10T05:53:29.854Z,93.88
2018-09-10T05:54:29.768Z,93.79
2018-09-10T05:55:29.769Z,94.36
2018-09-10T05:56:29.669Z,93.88
2018-09-10T05:57:29.653Z,94.07
2018-09-10T05:58:29.570Z,93.79
2018-09-10T05:59:29.520Z,93.79
2018-09-10T06:00:29.469Z,93.98
2018-09-10T06:01:29.420Z,93.79
2018-09-10T06:02:29.400Z,94.36
2018-09-10T06:03:29.325Z,93.70
2018-09-10T06:04:29.305Z,94.84
2018-09-10T06:05:29.255Z,94.55
2018-09-10T06:06:29.172Z,94.17
2018-09-10T06:07:29.127Z,94.22
2018-09-10T06:08:29.077Z,93.93
2018-09-10T06:09:29.055Z,94.31
2018-09-10T06:10:29.039Z,94.12
2018-09-10T06:11:28.925Z,94.79
2018-09-10T06:12:28.874Z,94.41
2018-09-10T06:13:28.826Z,94.70
2018-09-10T06:14:28.820Z,93.84
2018-09-10T06:15:28.729Z,94.89
2018-09-10T06:16:28.682Z,94.07
2018-09-10T06:17:28.628Z,94.55
2018-09-10T06:18:28.580Z,93.88
2018-09-10T06:19:28.569Z,93.88
2018-09-10T06:20:28.480Z,94.17
2018-09-10T06:21:28.431Z,93.98
2018-09-10T06:22:28.383Z,93.69
2018-09-10T06:23:28.335Z,93.69
2018-09-10T06:24:28.325Z,94.12
2018-09-10T06:25:28.235Z,94.60
2018-09-10T06:26:28.185Z,94.02
2018-09-10T06:27:28.135Z,94.12
2018-09-10T06:28:28.085Z,94.02
2018-09-10T06:29:28.069Z,94.12
2018-09-10T06:30:27.989Z,93.64
2018-09-10T06:31:27.980Z,93.88
2018-09-10T06:32:27.890Z,93.40
2018-09-10T06:33:27.839Z,93.59
2018-09-10T06:34:27.795Z,93.79
2018-09-10T06:35:27.745Z,93.59
2018-09-10T06:36:27.725Z,93.79
2018-09-10T06:37:27.679Z,93.93
2018-09-10T06:38:27.598Z,94.02
2018-09-10T06:39:27.549Z,93.54
2018-09-10T06:40:27.499Z,93.83
2018-09-10T06:41:27.452Z,93.64
2018-09-10T06:42:27.435Z,93.64
2018-09-10T06:43:27.357Z,93.26
2018-09-10T06:44:27.305Z,93.93
2018-09-10T06:45:27.258Z,93.83
2018-09-10T06:46:27.212Z,93.07
2018-09-10T06:47:27.220Z,93.64
2018-09-10T06:48:27.114Z,93.21
2018-09-10T06:49:27.063Z,92.73
2018-09-10T06:50:27.016Z,92.54
2018-09-10T06:51:26.970Z,93.02
2018-09-10T06:52:26.957Z,92.44
2018-09-10T06:53:26.875Z,92.54
2018-09-10T06:54:26.825Z,92.44
2018-09-10T06:55:26.777Z,91.72
2018-09-10T06:56:26.730Z,91.91
2018-09-10T06:57:26.716Z,91.91
2018-09-10T06:58:26.669Z,91.34
2018-09-10T06:59:26.587Z,90.95
2018-09-10T07:00:26.541Z,91.63
2018-09-10T07:01:26.492Z,91.57
2018-09-10T07:02:26.474Z,92.01
2018-09-10T07:03:26.431Z,92.15
2018-09-10T07:04:26.346Z,91.67
2018-09-10T07:05:26.305Z,91.96
2018-09-10T07:06:26.274Z,91.67
2018-09-10T07:07:26.205Z,91.48
2018-09-10T07:08:26.189Z,91.96
2018-09-10T07:09:26.112Z,90.52
2018-09-10T07:10:26.098Z,89.27
2018-09-10T07:11:26.017Z,88.65
2018-09-10T07:12:25.971Z,88.65
2018-09-10T07:13:25.925Z,88.74
2018-09-10T07:14:25.920Z,87.49
2018-09-10T07:15:25.831Z,86.25
2018-09-10T07:16:25.782Z,86.58
2018-09-10T07:17:25.736Z,86.58
2018-09-10T07:18:25.746Z,87.63
2018-09-10T07:19:25.671Z,84.56
2018-09-10T07:20:25.626Z,84.85
2018-09-10T07:21:25.546Z,85.33
2018-09-10T07:22:25.505Z,87.01
2018-09-10T07:23:25.455Z,84.70
2018-09-10T07:24:25.440Z,84.41
2018-09-10T07:25:25.365Z,84.60
2018-09-10T07:26:25.363Z,84.55
2018-09-10T07:27:25.269Z,85.41
2018-09-10T07:28:25.227Z,86.47
2018-09-10T07:29:25.177Z,84.45
2018-09-10T07:30:25.129Z,79.84
2018-09-10T07:31:25.125Z,79.75
2018-09-10T07:32:25.037Z,76.96
2018-09-10T07:33:25.001Z,77.15
2018-09-10T07:34:24.979Z,77.00
2018-09-10T07:35:24.945Z,76.81
2018-09-10T07:36:24.858Z,76.71
2018-09-10T07:37:24.828Z,77.29
2018-09-10T07:38:24.761Z,76.14
2018-09-10T07:39:24.714Z,75.37
2018-09-10T07:40:24.677Z,75.94
2018-09-10T07:41:24.621Z,75.17
2018-09-10T07:42:24.609Z,76.14
2018-09-10T07:43:24.571Z,77.33
2018-09-10T07:44:24.483Z,75.88
2018-09-10T07:45:24.441Z,72.80
2018-09-10T07:46:24.438Z,70.68
2018-09-10T07:47:24.350Z,70.59
2018-09-10T07:48:24.304Z,69.24
2018-09-10T07:49:24.258Z,67.42
2018-09-10T07:50:24.264Z,66.55
2018-09-10T07:51:24.221Z,67.42
2018-09-10T07:52:24.122Z,67.61
2018-09-10T07:53:24.078Z,68.19
2018-09-10T07:54:24.085Z,67.90
2018-09-10T07:55:23.989Z,67.03
2018-09-10T07:56:23.982Z,65.69
2018-09-10T07:57:23.899Z,65.88
2018-09-10T07:58:23.855Z,65.97
2018-09-10T07:59:23.807Z,66.88
2018-09-10T08:00:23.766Z,66.20
2018-09-10T08:01:23.747Z,64.95
2018-09-10T08:02:23.675Z,65.05
2018-09-10T08:03:23.631Z,64.02
2018-09-10T08:04:23.583Z,63.47
2018-09-10T08:05:23.572Z,63.18
2018-09-10T08:06:23.496Z,62.03
2018-09-10T08:07:23.451Z,60.80
2018-09-10T08:08:23.407Z,60.93
2018-09-10T08:09:23.546Z,58.91
2018-09-10T08:10:23.349Z,59.23
2018-09-10T08:11:23.275Z,58.17
2018-09-10T08:12:23.229Z,56.43
2018-09-10T08:13:23.218Z,57.52
2018-09-10T08:14:23.142Z,57.42
2018-09-10T08:15:23.101Z,56.48
2018-09-10T08:16:23.060Z,56.29
2018-09-10T08:17:23.044Z,55.13
2018-09-10T08:18:23.014Z,55.83
2018-09-10T08:19:22.927Z,54.13
2018-09-10T08:20:22.887Z,53.77
2018-09-10T08:21:22.844Z,53.38
2018-09-10T08:22:22.803Z,51.95
2018-09-10T08:23:22.791Z,50.60
2018-09-10T08:24:22.743Z,50.21
2018-09-10T08:25:22.709Z,50.40
2018-09-10T08:26:22.637Z,50.96
2018-09-10T08:27:22.594Z,51.83
2018-09-10T08:28:22.550Z,51.83
2018-09-10T08:29:22.511Z,52.02
2018-09-10T08:30:22.529Z,51.64
2018-09-10T08:31:22.430Z,52.05
2018-09-10T08:32:22.433Z,50.79
2018-09-10T08:33:22.353Z,50.43
2018-09-10T08:34:22.310Z,50.24
2018-09-10T08:35:22.299Z,50.14
2018-09-10T08:36:22.227Z,50.14
2018-09-10T08:37:22.187Z,49.56
2018-09-10T08:38:22.148Z,48.52
2018-09-10T08:39:22.135Z,48.52
2018-09-10T08:40:22.101Z,48.13
2018-09-10T08:41:22.028Z,48.03
2018-09-10T08:42:21.987Z,47.64
2018-09-10T08:43:21.947Z,47.81
2018-09-10T08:44:21.955Z,48.27
2018-09-10T08:45:21.932Z,49.29
2018-09-10T08:46:21.827Z,49.95
2018-09-10T08:47:21.793Z,49.95
2018-09-10T08:48:21.816Z,50.33
2018-09-10T08:49:21.708Z,51.13
2018-09-10T08:50:21.707Z,51.49
2018-09-10T08:51:21.629Z,51.42
2018-09-10T08:52:21.586Z,51.20
2018-09-10T08:53:21.550Z,51.90
2018-09-10T08:54:21.687Z,50.74
2018-09-10T08:55:21.532Z,50.74
2018-09-10T08:56:21.525Z,51.81
2018-09-10T08:57:21.418Z,51.42
2018-09-10T08:58:21.346Z,51.61
2018-09-10T08:59:21.306Z,49.87
2018-09-10T09:00:21.318Z,49.87
2018-09-10T09:01:21.224Z,50.16
2018-09-10T09:02:21.183Z,51.78
2018-09-10T09:03:21.145Z,51.81
2018-09-10T09:04:21.110Z,50.74
2018-09-10T09:05:21.099Z,50.35
2018-09-10T09:06:21.049Z,50.43
2018-09-10T09:07:20.982Z,51.46
2018-09-10T09:08:20.939Z,51.07
2018-09-10T09:09:20.902Z,51.07
2018-09-10T09:10:20.904Z,51.65
2018-09-10T09:11:20.818Z,52.21
2018-09-10T09:12:20.777Z,52.50
2018-09-10T09:13:20.737Z,53.37
2018-09-10T09:14:20.698Z,53.37
2018-09-10T09:15:20.697Z,52.33
2018-09-10T09:16:20.610Z,51.85
2018-09-10T09:17:20.628Z,51.95
2018-09-10T09:18:20.531Z,52.69
2018-09-10T09:19:20.489Z,52.59
2018-09-10T09:20:20.478Z,52.98
2018-09-10T09:21:20.407Z,53.37
2018-09-10T09:22:20.364Z,52.40
2018-09-10T09:23:20.440Z,53.17
2018-09-10T09:24:20.312Z,52.89
2018-09-10T09:25:20.242Z,51.82
2018-09-10T09:26:20.245Z,52.01
2018-09-10T09:27:20.158Z,52.19
2018-09-10T09:28:20.117Z,52.47
2018-09-10T09:29:20.074Z,52.76
2018-09-10T09:30:20.165Z,53.25
2018-09-10T09:31:20.022Z,53.44
2018-09-10T09:32:19.980Z,53.15
2018-09-10T09:33:19.904Z,53.73
2018-09-10T09:34:19.896Z,53.25
2018-09-10T09:35:19.821Z,53.44
2018-09-10T09:36:19.829Z,53.83
2018-09-10T09:37:19.735Z,54.02
2018-09-10T09:38:19.741Z,53.92
2018-09-10T09:39:19.657Z,54.79
2018-09-10T09:40:19.611Z,53.73
2018-09-10T09:41:19.568Z,54.18
2018-09-10T09:42:19.525Z,54.66
2018-09-10T09:43:19.536Z,54.69
2018-09-10T09:44:19.472Z,54.60
2018-09-10T09:45:19.402Z,53.89
2018-09-10T09:46:19.359Z,54.21
2018-09-10T09:47:19.322Z,54.69
2018-09-10T09:48:19.274Z,55.27
2018-09-10T09:49:19.263Z,54.53
2018-09-10T09:50:19.189Z,54.24
2018-09-10T09:51:19.173Z,53.39
2018-09-10T09:52:19.107Z,53.30
2018-09-10T09:53:19.060Z,53.59
2018-09-10T09:54:19.049Z,52.72
2018-09-10T09:55:18.976Z,52.89
2018-09-10T09:56:18.931Z,52.69
2018-09-10T09:57:19.500Z,53.37
2018-09-10T09:58:18.878Z,54.14
2018-09-10T09:59:18.841Z,54.14
2018-09-10T10:00:18.764Z,54.69
2018-09-10T10:01:18.722Z,54.79
2018-09-10T10:02:18.682Z,55.08
2018-09-10T10:03:18.671Z,55.08
2018-09-10T10:04:18.705Z,55.46
2018-09-10T10:05:18.553Z,55.30
2018-09-10T10:06:18.509Z,55.49
2018-09-10T10:07:18.477Z,54.72
2018-09-10T10:08:18.429Z,55.30
2018-09-10T10:09:18.436Z,55.10
2018-09-10T10:10:18.450Z,54.72
2018-09-10T10:11:18.354Z,55.40
2018-09-10T10:12:18.332Z,55.10
2018-09-10T10:13:18.215Z,54.43
2018-09-10T10:14:18.216Z,54.24
2018-09-10T10:15:18.131Z,55.10
2018-09-10T10:16:18.110Z,54.50
2018-09-10T10:17:18.051Z,55.10
2018-09-10T10:18:18.004Z,55.49
2018-09-10T10:19:17.993Z,55.88
2018-09-10T10:20:17.951Z,54.82
2018-09-10T10:21:17.878Z,54.17
2018-09-10T10:22:17.835Z,54.27
2018-09-10T10:23:17.793Z,53.88
2018-09-10T10:24:17.752Z,54.17
2018-09-10T10:25:17.737Z,53.97
2018-09-10T10:26:17.668Z,54.07
2018-09-10T10:27:17.628Z,54.36
2018-09-10T10:28:17.660Z,54.49
2018-09-10T10:29:17.542Z,53.91
2018-09-10T10:30:17.533Z,53.61
2018-09-10T10:31:17.454Z,54.00
2018-09-10T10:32:17.419Z,53.45
2018-09-10T10:33:17.373Z,52.09
2018-09-10T10:34:17.332Z,52.58
2018-09-10T10:35:17.323Z,53.09
2018-09-10T10:36:17.283Z,51.93
2018-09-10T10:37:17.205Z,52.02
2018-09-10T10:38:17.166Z,51.61
2018-09-10T10:39:17.173Z,52.19
2018-09-10T10:40:17.082Z,51.81
2018-09-10T10:41:17.073Z,51.47
2018-09-10T10:42:17.000Z,50.24
2018-09-10T10:43:16.959Z,49.39
2018-09-10T10:44:16.917Z,49.61
2018-09-10T10:45:16.913Z,48.37
2018-09-10T10:46:16.835Z,47.13
2018-09-10T10:47:16.882Z,46.24
2018-09-10T10:48:16.764Z,46.62
2018-09-10T10:49:16.712Z,46.04
2018-09-10T10:50:16.673Z,45.97
2018-09-10T10:51:16.640Z,46.26
2018-09-10T10:52:16.622Z,45.48
2018-09-10T10:53:16.551Z,44.23
2018-09-10T10:54:16.510Z,44.20
2018-09-10T10:55:16.471Z,44.40
2018-09-10T10:56:16.430Z,45.07
2018-09-10T10:57:16.421Z,46.14
2018-09-10T10:58:16.351Z,46.14
2018-09-10T10:59:16.309Z,45.56
2018-09-10T11:00:16.301Z,44.68
2018-09-10T11:01:16.228Z,45.56
2018-09-10T11:02:16.191Z,44.98
2018-09-10T11:03:16.192Z,44.49
2018-09-10T11:04:16.141Z,43.26
2018-09-10T11:05:16.071Z,42.67
2018-09-10T11:06:16.031Z,42.99
2018-09-10T11:07:15.994Z,43.06
2018-09-10T11:08:15.980Z,43.13
2018-09-10T11:09:15.909Z,44.40
2018-09-10T11:10:15.919Z,44.30
2018-09-10T11:11:15.848Z,44.10
2018-09-10T11:12:15.790Z,42.65
2018-09-10T11:13:15.752Z,42.38
2018-09-10T11:14:15.714Z,43.47
2018-09-10T11:15:15.719Z,42.13
2018-09-10T11:16:15.634Z,42.15
2018-09-10T11:17:15.595Z,41.78
2018-09-10T11:18:15.551Z,41.61
2018-09-10T11:19:15.515Z,41.13
2018-09-10T11:20:15.518Z,40.83
2018-09-10T11:21:15.434Z,39.47
2018-09-10T11:22:15.431Z,40.13
2018-09-10T11:23:15.356Z,40.42
2018-09-10T11:24:15.319Z,41.03
2018-09-10T11:25:15.331Z,40.25
2018-09-10T11:26:15.239Z,40.54
2018-09-10T11:27:15.202Z,40.37
2018-09-10T11:28:15.167Z,39.49
2018-09-10T11:29:15.126Z,39.49
2018-09-10T11:30:15.137Z,40.25
2018-09-10T11:31:15.047Z,40.13
2018-09-10T11:32:15.025Z,40.72
2018-09-10T11:33:14.969Z,40.33
2018-09-10T11:34:14.932Z,40.01
2018-09-10T11:35:15.031Z,40.50
2018-09-10T11:36:14.855Z,40.29
2018-09-10T11:37:14.816Z,41.08
2018-09-10T11:38:14.778Z,41.77
2018-09-10T11:39:14.739Z,40.87
2018-09-10T11:40:14.733Z,41.16
2018-09-10T11:41:14.694Z,41.06
2018-09-10T11:42:14.654Z,41.94
2018-09-10T11:43:14.583Z,41.74
2018-09-10T11:44:14.545Z,42.23
2018-09-10T11:45:14.506Z,42.61
2018-09-10T11:46:14.594Z,42.61
2018-09-10T11:47:14.429Z,42.81
2018-09-10T11:48:14.391Z,42.43
2018-09-10T11:49:14.356Z,42.91
2018-09-10T11:50:14.314Z,43.06
2018-09-10T11:51:14.306Z,43.93
2018-09-10T11:52:14.267Z,43.37
2018-09-10T11:53:14.197Z,44.27
2018-09-10T11:54:14.159Z,43.86
2018-09-10T11:55:14.119Z,43.18
2018-09-10T11:56:14.128Z,44.03
2018-09-10T11:57:14.045Z,44.30
2018-09-10T11:58:14.238Z,44.88
2018-09-10T11:59:13.967Z,45.56
2018-09-10T12:00:13.928Z,45.73
2018-09-10T12:01:13.920Z,46.00
2018-09-10T12:02:13.942Z,46.77
2018-09-10T12:03:13.808Z,46.39
2018-09-10T12:04:13.769Z,46.58
2018-09-10T12:05:13.732Z,46.87
2018-09-10T12:06:13.717Z,46.97
2018-09-10T12:07:13.689Z,47.47
2018-09-10T12:08:13.645Z,47.30
2018-09-10T12:09:13.577Z,46.75
2018-09-10T12:10:13.549Z,45.80
2018-09-10T12:11:13.498Z,45.61
2018-09-10T12:12:13.454Z,46.28
2018-09-10T12:13:13.448Z,45.70
2018-09-10T12:14:13.377Z,44.95
2018-09-10T12:15:13.339Z,44.46
2018-09-10T12:16:13.332Z,44.37
2018-09-10T12:17:13.258Z,44.46
2018-09-10T12:18:13.253Z,44.64
2018-09-10T12:19:13.180Z,45.58
2018-09-10T12:20:13.186Z,46.16
2018-09-10T12:21:13.104Z,46.07
2018-09-10T12:22:13.094Z,45.87
2018-09-10T12:23:13.059Z,46.19
2018-09-10T12:24:12.983Z,45.61
2018-09-10T12:25:12.945Z,45.00
2018-09-10T12:26:12.908Z,45.80
2018-09-10T12:27:12.868Z,45.51
2018-09-10T12:28:12.860Z,45.87
2018-09-10T12:29:12.790Z,46.33
2018-09-10T12:30:12.749Z,46.62
2018-09-10T12:31:12.710Z,47.03
2018-09-10T12:32:12.675Z,46.94
2018-09-10T12:33:12.663Z,46.09
2018-09-10T12:34:12.593Z,45.41
2018-09-10T12:35:12.589Z,45.39
2018-09-10T12:36:12.512Z,45.80
2018-09-10T12:37:12.473Z,46.28
2018-09-10T12:38:12.436Z,45.72
2018-09-10T12:39:12.460Z,44.95
2018-09-10T12:40:12.355Z,45.04
2018-09-10T12:41:12.329Z,44.75
2018-09-10T12:42:12.280Z,44.85
2018-09-10T12:43:12.246Z,44.56
2018-09-10T12:44:12.232Z,44.68
2018-09-10T12:45:12.162Z,43.82
2018-09-10T12:46:12.123Z,43.36
2018-09-10T12:47:12.085Z,42.29
2018-09-10T12:48:12.098Z,43.16
2018-09-10T12:49:12.007Z,43.85
2018-09-10T12:50:11.970Z,43.82
2018-09-10T12:51:11.930Z,43.82
2018-09-10T12:52:11.892Z,43.44